createdAt,value
2019-04-27T00:00:53.486Z,4.17
2019-04-27T00:05:55.896Z,4.07
2019-04-27T00:10:59.906Z,3.60
2019-04-27T00:16:05.543Z,3.40
2019-04-27T00:21:03.768Z,3.50
2019-04-27T00:26:05.850Z,3.53
2019-04-27T00:31:07.088Z,4.20
2019-04-27T00:36:08.610Z,3.63
2019-04-27T00:41:09.854Z,3.93
2019-04-27T00:46:11.096Z,4.00
2019-04-27T00:51:13.058Z,4.60
2019-04-27T00:56:15.527Z,4.53
2019-04-27T01:01:16.976Z,4.30
2019-04-27T01:06:18.347Z,3.70
2019-04-27T01:11:20.036Z,4.50
2019-04-27T01:16:24.213Z,4.70
2019-04-27T01:21:25.751Z,4.20
2019-04-27T01:26:28.618Z,4.60
2019-04-27T01:31:30.232Z,4.63
2019-04-27T01:36:31.908Z,4.50
2019-04-27T01:41:33.464Z,4.60
2019-04-27T01:46:34.720Z,4.70
2019-04-27T01:51:35.960Z,4.60
2019-04-27T01:56:37.340Z,4.63
2019-04-27T02:01:39.036Z,4.80
2019-04-27T02:06:40.688Z,5.03
2019-04-27T02:11:42.020Z,4.67
2019-04-27T02:16:43.580Z,4.50
2019-04-27T02:21:45.189Z,4.90
2019-04-27T02:26:46.484Z,4.90
2019-04-27T02:31:50.040Z,5.80
2019-04-27T02:36:51.018Z,6.30
2019-04-27T02:41:52.221Z,5.37
2019-04-27T02:46:53.799Z,5.63
2019-04-27T02:51:55.034Z,6.03
2019-04-27T02:56:56.307Z,5.60
2019-04-27T03:02:00.796Z,5.50
2019-04-27T03:07:01.241Z,5.03
2019-04-27T03:12:03.233Z,4.87
2019-04-27T03:17:04.750Z,4.63
2019-04-27T03:22:06.451Z,5.47
2019-04-27T03:27:09.692Z,4.80
2019-04-27T03:32:12.448Z,4.97
2019-04-27T03:37:14.544Z,4.30
2019-04-27T03:42:15.799Z,4.37
2019-04-27T03:47:19.510Z,4.53
2019-04-27T03:52:20.720Z,5.00
2019-04-27T03:57:24.010Z,4.30
2019-04-27T04:02:25.398Z,4.23
2019-04-27T04:07:27.087Z,4.33
2019-04-27T04:12:30.271Z,4.50
2019-04-27T04:17:31.939Z,3.73
2019-04-27T04:22:33.156Z,4.00
2019-04-27T04:27:34.529Z,4.23
2019-04-27T04:32:39.268Z,3.73
2019-04-27T04:37:40.421Z,5.12
2019-04-27T04:42:42.392Z,4.33
2019-04-27T04:47:43.699Z,4.20
2019-04-27T04:52:45.262Z,4.67
2019-04-27T04:57:49.115Z,5.10
2019-04-27T05:02:50.198Z,4.60
2019-04-27T05:07:51.427Z,4.63
2019-04-27T05:12:52.752Z,4.60
2019-04-27T05:17:53.984Z,5.37
2019-04-27T05:22:55.253Z,5.10
2019-04-27T05:27:56.514Z,5.60
2019-04-27T05:32:58.561Z,5.47
2019-04-27T05:38:00.910Z,5.10
2019-04-27T05:43:03.251Z,5.60
2019-04-27T05:48:05.145Z,6.00
2019-04-27T05:53:08.660Z,6.40
2019-04-27T05:58:10.010Z,5.40
2019-04-27T06:03:11.291Z,5.97
2019-04-27T06:08:12.981Z,6.00
2019-04-27T06:13:14.309Z,5.93
2019-04-27T06:18:15.656Z,5.67
2019-04-27T06:23:18.651Z,5.80
2019-04-27T06:28:20.732Z,6.70
2019-04-27T06:33:32.070Z,6.13
2019-04-27T06:38:25.450Z,6.40
2019-04-27T06:43:26.908Z,7.40
2019-04-27T06:48:29.608Z,7.30
2019-04-27T06:53:31.748Z,7.80
2019-04-27T06:58:33.450Z,9.43
2019-04-27T07:03:35.243Z,9.67
2019-04-27T07:08:36.625Z,10.70
2019-04-27T07:13:39.060Z,11.43
2019-04-27T07:18:40.489Z,2.83
2019-04-27T07:23:42.183Z,1.90
2019-04-27T07:28:43.832Z,2.83
2019-04-27T07:33:45.193Z,1.93
2019-04-27T07:38:46.547Z,1.50
2019-04-27T07:43:49.378Z,1.70
2019-04-27T07:48:50.946Z,2.43
2019-04-27T07:53:52.847Z,2.47
2019-04-27T07:58:54.206Z,2.30
2019-04-27T08:03:56.727Z,2.57
2019-04-27T08:08:59.339Z,3.00
2019-04-27T08:14:00.800Z,3.70
2019-04-27T08:19:02.413Z,3.47
2019-04-27T08:24:03.928Z,3.63
2019-04-27T08:29:05.425Z,4.47
2019-04-27T08:34:08.557Z,3.90
2019-04-27T08:39:10.311Z,3.90
2019-04-27T08:44:11.739Z,3.47
2019-04-27T08:49:13.259Z,4.05
2019-04-27T08:54:15.605Z,4.05
2019-04-27T08:59:17.114Z,4.90
2019-04-27T09:04:20.046Z,4.47
2019-04-27T09:09:22.091Z,4.28
2019-04-27T09:14:23.352Z,4.05
2019-04-27T09:19:25.061Z,4.60
2019-04-27T09:24:26.535Z,5.28
2019-04-27T09:29:29.822Z,4.30
2019-04-27T09:34:31.444Z,3.90
2019-04-27T09:39:33.239Z,4.08
2019-04-27T09:44:34.736Z,4.03
2019-04-27T09:49:38.111Z,3.70
2019-04-27T09:54:39.630Z,4.08
2019-04-27T09:59:40.880Z,3.40
2019-04-27T10:04:42.547Z,3.50
2019-04-27T10:09:45.504Z,3.65
2019-04-27T10:14:47.838Z,4.20
2019-04-27T10:19:49.753Z,3.58
2019-04-27T10:24:51.123Z,4.42
2019-04-27T10:29:52.889Z,3.27
2019-04-27T10:34:54.370Z,4.62
2019-04-27T10:39:56.103Z,4.25
2019-04-27T10:44:57.555Z,4.08
2019-04-27T10:49:58.997Z,3.65
2019-04-27T10:55:00.731Z,3.40
2019-04-27T11:00:02.218Z,3.40
2019-04-27T11:05:04.644Z,2.98
2019-04-27T11:10:07.560Z,3.77
2019-04-27T11:15:09.341Z,3.45
2019-04-27T11:20:10.870Z,3.33
2019-04-27T11:25:12.287Z,3.60
2019-04-27T11:30:15.659Z,3.37
2019-04-27T11:35:17.147Z,2.77
2019-04-27T11:40:18.912Z,3.45
2019-04-27T11:45:20.380Z,1.70
2019-04-27T11:50:21.644Z,1.37
2019-04-27T11:55:23.399Z,1.32
2019-04-27T12:00:25.155Z,1.65
2019-04-27T12:05:26.782Z,1.50
2019-04-27T12:10:28.380Z,1.92
2019-04-27T12:15:30.041Z,2.05
2019-04-27T12:20:32.025Z,3.77
2019-04-27T12:25:33.651Z,5.15
2019-04-27T12:30:34.971Z,4.67
2019-04-27T12:35:36.922Z,5.07
2019-04-27T12:40:38.477Z,4.93
2019-04-27T12:45:43.446Z,4.53
2019-04-27T12:50:43.809Z,4.00
2019-04-27T12:55:46.512Z,2.72
2019-04-27T13:00:48.580Z,2.60
2019-04-27T13:05:50.140Z,2.22
2019-04-27T13:10:51.648Z,1.92
2019-04-27T13:15:53.203Z,2.37
2019-04-27T13:20:54.681Z,2.70
2019-04-27T13:25:56.521Z,2.75
2019-04-27T13:30:58.135Z,2.90
2019-04-27T13:35:59.483Z,3.33
2019-04-27T13:41:00.997Z,3.45
2019-04-27T13:46:02.949Z,3.30
2019-04-27T13:51:06.513Z,3.30
2019-04-27T13:56:08.017Z,2.87
2019-04-27T14:01:09.407Z,3.33
2019-04-27T14:06:10.938Z,3.72
2019-04-27T14:11:12.521Z,3.15
2019-04-27T14:16:13.922Z,3.83
2019-04-27T14:21:15.433Z,3.12
2019-04-27T14:26:18.469Z,3.37
2019-04-27T14:31:20.454Z,3.92
2019-04-27T14:36:22.681Z,3.90
2019-04-27T14:41:23.954Z,3.85
2019-04-27T14:46:25.206Z,3.77
2019-04-27T14:51:26.786Z,4.90
2019-04-27T14:56:28.506Z,3.80
2019-04-27T15:01:29.867Z,3.87
2019-04-27T15:06:31.855Z,3.70
2019-04-27T15:11:34.657Z,3.70
2019-04-27T15:16:37.926Z,2.58
2019-04-27T15:21:41.777Z,3.00
2019-04-27T15:26:43.152Z,2.83
2019-04-27T15:31:44.555Z,3.13
2019-04-27T15:36:45.945Z,2.95
2019-04-27T15:41:48.535Z,3.63
2019-04-27T15:46:50.108Z,3.83
2019-04-27T15:51:54.774Z,3.90
2019-04-27T15:56:54.904Z,3.37
2019-04-27T16:01:56.590Z,3.40
2019-04-27T16:06:58.273Z,3.23
2019-04-27T16:12:09.966Z,3.30
2019-04-27T16:17:08.075Z,3.00
2019-04-27T16:22:08.179Z,2.83
2019-04-27T16:27:09.889Z,3.60
2019-04-27T16:32:13.052Z,3.43
2019-04-27T16:37:18.935Z,2.30
2019-04-27T16:42:18.666Z,2.50
2019-04-27T16:47:24.338Z,2.50
2019-04-27T16:52:23.542Z,2.63
2019-04-27T16:57:24.961Z,2.83
2019-04-27T17:02:26.229Z,3.47
2019-04-27T17:07:30.226Z,3.17
2019-04-27T17:12:34.858Z,2.70
2019-04-27T17:17:34.404Z,2.90
2019-04-27T17:22:35.632Z,2.80
2019-04-27T17:27:38.287Z,2.07
2019-04-27T17:32:39.653Z,2.17
2019-04-27T17:37:41.066Z,2.90
2019-04-27T17:42:42.658Z,2.60
2019-04-27T17:47:44.130Z,2.23
2019-04-27T17:52:49.774Z,2.63
2019-04-27T17:57:49.098Z,2.77
2019-04-27T18:02:50.531Z,3.17
2019-04-27T18:07:52.090Z,3.10
2019-04-27T18:12:53.625Z,2.30
2019-04-27T18:17:55.202Z,3.03
2019-04-27T18:22:58.038Z,2.97
2019-04-27T18:27:59.888Z,2.20
2019-04-27T18:33:02.231Z,2.07
2019-04-27T18:38:05.487Z,2.27
2019-04-27T18:43:12.176Z,2.37
2019-04-27T18:48:13.855Z,2.80
2019-04-27T18:53:16.386Z,2.77
2019-04-27T18:58:19.282Z,2.90
2019-04-27T19:03:20.631Z,3.13
2019-04-27T19:08:22.174Z,3.07
2019-04-27T19:13:23.408Z,3.27
2019-04-27T19:18:24.640Z,2.83
2019-04-27T19:23:26.179Z,2.20
2019-04-27T19:28:28.298Z,2.03
2019-04-27T19:33:31.900Z,2.10
2019-04-27T19:38:33.375Z,1.80
2019-04-27T19:43:34.751Z,2.00
2019-04-27T19:48:36.307Z,2.10
2019-04-27T19:53:39.385Z,2.23
2019-04-27T19:58:40.935Z,2.10
2019-04-27T20:03:42.940Z,2.80
2019-04-27T20:08:44.785Z,2.90
2019-04-27T20:13:46.438Z,3.10
2019-04-27T20:18:48.289Z,3.40
2019-04-27T20:23:50.697Z,4.20
2019-04-27T20:28:52.539Z,3.87
2019-04-27T20:33:54.164Z,3.30
2019-04-27T20:38:55.748Z,2.87
2019-04-27T20:43:57.151Z,2.63
2019-04-27T20:48:58.615Z,2.80
2019-04-27T20:54:01.682Z,2.83
2019-04-27T20:59:03.438Z,2.70
2019-04-27T21:04:05.401Z,2.60
2019-04-27T21:09:12.821Z,3.40
2019-04-27T21:14:14.338Z,3.10
2019-04-27T21:19:15.623Z,3.23
2019-04-27T21:24:17.017Z,4.13
2019-04-27T21:29:18.409Z,4.00
2019-04-27T21:34:19.863Z,4.40
2019-04-27T21:39:21.775Z,4.53
2019-04-27T21:44:23.140Z,4.33
2019-04-27T21:49:24.533Z,4.53
2019-04-27T21:54:26.400Z,5.43
2019-04-27T21:59:29.253Z,4.70
2019-04-27T22:04:31.509Z,4.80
2019-04-27T22:09:33.387Z,4.50
2019-04-27T22:14:34.658Z,5.00
2019-04-27T22:19:35.909Z,4.10
2019-04-27T22:24:37.291Z,2.70
2019-04-27T22:29:39.121Z,2.70
2019-04-27T22:34:41.363Z,2.80
2019-04-27T22:39:43.014Z,3.17
2019-04-27T22:44:44.408Z,2.43
2019-04-27T22:49:45.816Z,2.60
2019-04-27T22:54:47.154Z,2.30
2019-04-27T22:59:48.402Z,2.23
2019-04-27T23:04:51.473Z,3.37
2019-04-27T23:09:52.872Z,2.77
2019-04-27T23:14:54.167Z,2.40
2019-04-27T23:19:55.522Z,2.03
2019-04-27T23:24:57.116Z,2.30
2019-04-27T23:29:58.670Z,1.83
2019-04-27T23:34:59.933Z,1.73
2019-04-27T23:40:02.934Z,2.20
2019-04-27T23:45:05.432Z,1.67
2019-04-27T23:50:06.782Z,2.37
2019-04-27T23:55:08.030Z,2.57
